Time;durP1;ratioP1;P1;durP2;ratioP2;P2;SDS_P1;SDS_P2;PMS_P1;PMS_P2;Temp;Humidity;BMP_temperature;BMP_pressure;BME280_temperature;BME280_humidity;BME280_pressure;Samples;Min_cycle;Max_cycle;Signal;HPM_P1;HPM_P2
2022/12/26 00:01:41;;;;;;;58.03;20.05;;;8.40;99.90;;;;;;5017762;28;20129;-81
2022/12/26 00:04:07;;;;;;;57.08;19.08;;;8.40;99.90;;;;;;5010247;28;20042;-81
2022/12/26 00:06:33;;;;;;;51.15;19.02;;;8.40;99.90;;;;;;5014418;28;20034;-81
2022/12/26 00:09:01;;;;;;;47.22;17.58;;;8.40;99.90;;;;;;5011094;28;20041;-81
2022/12/26 00:11:27;;;;;;;52.70;19.90;;;8.40;99.90;;;;;;5012117;28;20116;-81
2022/12/26 00:13:58;;;;;;;49.15;18.45;;;8.40;99.90;;;;;;5013232;28;20120;-81
2022/12/26 00:16:25;;;;;;;53.72;18.95;;;8.40;99.90;;;;;;5032042;28;20037;-81
2022/12/26 00:18:51;;;;;;;56.40;20.83;;;8.40;99.90;;;;;;5014191;28;20045;-81
2022/12/26 00:21:18;;;;;;;54.60;20.10;;;8.40;99.90;;;;;;5021573;28;20049;-81
2022/12/26 00:23:44;;;;;;;51.58;18.23;;;8.40;99.90;;;;;;5012002;28;20092;-81
2022/12/26 00:26:18;;;;;;;52.95;18.90;;;8.40;99.90;;;;;;4993972;28;20088;-81
2022/12/26 00:28:44;;;;;;;37.15;15.13;;;8.40;99.90;;;;;;5013220;28;20041;-81
2022/12/26 00:31:15;;;;;;;48.47;17.90;;;8.40;99.90;;;;;;5017465;28;20435;-81
2022/12/26 00:33:41;;;;;;;46.45;17.52;;;8.40;99.90;;;;;;5014359;28;20177;-81
2022/12/26 00:36:16;;;;;;;47.45;18.23;;;8.40;99.90;;;;;;5011673;28;20045;-81
2022/12/26 00:38:43;;;;;;;40.25;15.60;;;8.40;99.90;;;;;;5008464;28;20034;-80
2022/12/26 00:41:09;;;;;;;48.13;18.38;;;8.40;99.90;;;;;;5013322;28;20180;-81
2022/12/26 00:43:35;;;;;;;44.00;16.60;;;8.40;99.90;;;;;;5015690;28;20117;-81
2022/12/26 00:46:01;;;;;;;41.67;16.38;;;8.40;99.90;;;;;;5013131;28;20113;-81
2022/12/26 00:48:27;;;;;;;41.25;17.00;;;8.40;99.90;;;;;;5008248;28;20048;-81
2022/12/26 00:50:54;;;;;;;44.50;17.15;;;8.40;99.90;;;;;;5014789;28;20064;-81
2022/12/26 00:53:20;;;;;;;50.33;17.92;;;8.40;99.90;;;;;;5009362;28;21711;-81
2022/12/26 00:55:46;;;;;;;46.22;16.83;;;8.40;99.90;;;;;;5019623;28;20098;-81
2022/12/26 00:58:11;;;;;;;52.03;18.38;;;8.40;99.90;;;;;;5013713;28;20037;-81
2022/12/26 01:00:37;;;;;;;47.30;19.23;;;8.40;99.90;;;;;;5015226;28;20029;-81
2022/12/26 01:03:06;;;;;;;47.67;18.55;;;8.40;99.90;;;;;;5009685;28;20034;-81
2022/12/26 01:05:32;;;;;;;43.67;18.13;;;8.40;99.90;;;;;;5009374;28;20030;-81
2022/12/26 01:07:58;;;;;;;51.78;19.60;;;8.50;99.90;;;;;;5008602;28;20088;-80
2022/12/26 01:10:24;;;;;;;51.45;21.00;;;8.40;99.90;;;;;;5014242;28;20034;-81
2022/12/26 01:12:49;;;;;;;49.28;18.88;;;8.40;99.90;;;;;;5014587;28;20099;-81
2022/12/26 01:15:15;;;;;;;52.65;20.30;;;8.40;99.90;;;;;;5015263;28;20460;-81
2022/12/26 01:17:41;;;;;;;57.25;20.58;;;8.40;99.90;;;;;;5018625;28;20381;-81
2022/12/26 01:20:06;;;;;;;58.55;21.27;;;8.40;99.90;;;;;;5009540;28;20049;-81
2022/12/26 01:22:32;;;;;;;50.85;19.23;;;8.40;99.90;;;;;;5030607;28;20053;-81
2022/12/26 01:24:58;;;;;;;59.83;20.75;;;8.40;99.90;;;;;;5017878;28;20033;-81
2022/12/26 01:27:25;;;;;;;50.80;20.40;;;8.40;99.90;;;;;;5013800;28;20899;-81
2022/12/26 01:29:52;;;;;;;47.80;18.58;;;8.40;99.90;;;;;;5007745;28;20042;-81
2022/12/26 01:32:17;;;;;;;50.67;20.45;;;8.40;99.90;;;;;;5014043;28;20510;-82
2022/12/26 01:34:43;;;;;;;47.17;17.77;;;8.70;99.90;;;;;;5009934;28;20042;-81
2022/12/26 01:37:12;;;;;;;52.88;18.63;;;8.40;99.90;;;;;;5013660;28;20046;-81
2022/12/26 01:39:37;;;;;;;48.45;19.52;;;8.40;99.90;;;;;;5009919;28;20064;-81
2022/12/26 01:42:12;;;;;;;40.97;17.63;;;8.40;99.90;;;;;;5018905;28;21110;-81
2022/12/26 01:44:58;;;;;;;45.38;17.40;;;8.40;99.90;;;;;;5021134;28;20067;-81
2022/12/26 01:47:37;;;;;;;43.35;16.38;;;8.40;99.90;;;;;;5022746;28;20503;-82
2022/12/26 01:50:05;;;;;;;42.10;16.60;;;8.40;99.90;;;;;;5016507;28;20045;-81
2022/12/26 01:52:41;;;;;;;35.40;15.30;;;8.40;99.90;;;;;;5017776;28;20545;-81
2022/12/26 01:55:10;;;;;;;37.17;15.18;;;8.40;99.90;;;;;;5017109;28;20397;-81
2022/12/26 01:57:41;;;;;;;42.15;16.40;;;8.60;99.90;;;;;;5018772;28;20104;-82
2022/12/26 02:00:07;;;;;;;40.92;16.08;;;8.40;99.90;;;;;;5013482;28;20056;-81
2022/12/26 02:05:32;;;;;;;40.63;16.25;;;8.40;99.90;;;;;;5013023;28;20101;-81
2022/12/26 02:05:34;;;;;;;38.63;15.05;;;8.40;99.90;;;;;;5012940;28;20508;-81
2022/12/26 02:08:31;;;;;;;33.97;14.60;;;8.40;99.90;;;;;;5018492;28;20390;-81
2022/12/26 02:11:11;;;;;;;37.00;13.90;;;8.40;99.90;;;;;;5008480;28;20049;-82
2022/12/26 02:13:38;;;;;;;27.98;11.98;;;8.40;99.90;;;;;;5018385;28;20163;-81
2022/12/26 02:16:06;;;;;;;33.45;12.43;;;8.40;99.90;;;;;;5021962;28;20043;-82
2022/12/26 02:18:32;;;;;;;23.60;11.00;;;8.40;99.90;;;;;;5017645;28;20041;-81
2022/12/26 02:21:13;;;;;;;29.98;12.45;;;8.40;99.90;;;;;;5020873;28;20025;-81
2022/12/26 02:24:04;;;;;;;27.05;11.27;;;8.40;99.90;;;;;;5015249;28;20048;-81
2022/12/26 02:26:59;;;;;;;26.50;11.70;;;8.70;99.90;;;;;;5017318;28;20538;-81
2022/12/26 02:29:38;;;;;;;;;;;8.40;99.90;;;;;;4985004;28;20043;-81
2022/12/26 02:32:17;;;;;;;23.10;10.07;;;8.50;99.90;;;;;;4987462;28;19925;-81
2022/12/26 02:35:19;;;;;;;24.08;9.88;;;8.40;99.90;;;;;;4970719;28;20058;-81
2022/12/26 02:37:58;;;;;;;21.80;9.85;;;8.40;99.90;;;;;;4987754;28;20497;-81
2022/12/26 02:40:38;;;;;;;20.05;8.60;;;8.50;99.90;;;;;;4987864;28;20117;-81
2022/12/26 02:43:21;;;;;;;19.02;8.93;;;8.40;99.90;;;;;;4983175;28;20121;-81
2022/12/26 02:49:26;;;;;;;22.38;9.27;;;8.40;99.90;;;;;;4983557;28;20054;-81
2022/12/26 03:15:24;;;;;;;31.13;13.68;;;8.50;99.90;;;;;;5016267;28;20053;-81
2022/12/26 03:17:56;;;;;;;27.85;13.63;;;8.50;99.90;;;;;;5017958;28;20103;-82
2022/12/26 03:20:34;;;;;;;29.52;14.13;;;8.50;99.90;;;;;;5014990;28;20432;-81
2022/12/26 03:23:12;;;;;;;33.17;15.68;;;8.60;99.90;;;;;;5011343;28;20052;-82
2022/12/26 03:28:27;;;;;;;33.75;16.58;;;8.60;99.90;;;;;;5009869;28;20492;-81
2022/12/26 03:30:55;;;;;;;33.38;16.80;;;8.90;99.90;;;;;;5010028;28;20037;-81
2022/12/26 03:36:07;;;;;;;36.20;17.65;;;8.60;99.90;;;;;;5019348;28;20131;-81
2022/12/26 03:38:56;;;;;;;33.92;17.65;;;8.60;99.90;;;;;;5015642;28;20213;-81
2022/12/26 04:19:50;;;;;;;45.47;21.00;;;8.70;99.90;;;;;;4996221;28;20171;-81
2022/12/26 04:44:55;;;;;;;50.08;23.83;;;8.70;99.90;;;;;;4996900;28;20050;-81
2022/12/26 04:47:21;;;;;;;42.55;21.85;;;8.80;99.90;;;;;;5005909;28;20772;-81
2022/12/26 04:55:16;;;;;;;46.90;24.30;;;8.90;99.90;;;;;;5017018;28;20049;-81
2022/12/26 04:57:42;;;;;;;43.63;22.88;;;9.00;99.90;;;;;;5017890;28;20046;-81
2022/12/26 05:00:09;;;;;;;49.55;24.98;;;8.70;99.90;;;;;;5009812;28;20848;-81
2022/12/26 05:10:47;;;;;;;43.95;22.33;;;8.60;99.90;;;;;;5018281;28;20124;-81
2022/12/26 05:13:13;;;;;;;45.72;24.52;;;8.60;99.90;;;;;;5020959;28;20452;-80
2022/12/26 05:29:26;;;;;;;39.22;21.50;;;8.50;99.90;;;;;;5028046;28;20049;-81
2022/12/26 05:31:51;;;;;;;38.53;21.52;;;8.70;99.90;;;;;;5001742;28;20397;-80
2022/12/26 05:34:19;;;;;;;39.05;21.50;;;8.50;99.90;;;;;;5018093;28;20085;-81
2022/12/26 05:36:48;;;;;;;39.47;21.67;;;8.50;99.90;;;;;;5011596;28;20057;-81
2022/12/26 05:39:14;;;;;;;36.72;20.60;;;8.50;99.90;;;;;;5017053;28;20049;-80
2022/12/26 05:41:40;;;;;;;37.63;22.52;;;8.50;99.90;;;;;;5017082;28;20104;-81
2022/12/26 05:44:06;;;;;;;35.17;19.88;;;8.40;99.90;;;;;;5018464;28;20042;-81
2022/12/26 05:46:34;;;;;;;34.20;20.40;;;8.40;99.90;;;;;;5017048;28;20677;-80
2022/12/26 05:48:59;;;;;;;36.88;21.08;;;8.40;99.90;;;;;;5012826;28;20454;-81
2022/12/26 05:51:26;;;;;;;36.55;20.05;;;8.40;99.90;;;;;;5013389;28;20041;-80
2022/12/26 05:53:52;;;;;;;35.70;19.98;;;8.40;99.90;;;;;;5021405;28;20116;-81
2022/12/26 05:56:18;;;;;;;37.25;20.30;;;8.40;99.90;;;;;;5027399;28;20536;-81
2022/12/26 05:58:44;;;;;;;38.28;20.70;;;8.50;99.90;;;;;;5019080;28;20128;-80
2022/12/26 06:01:18;;;;;;;34.58;19.25;;;8.40;99.90;;;;;;5021414;28;20424;-81
2022/12/26 06:03:48;;;;;;;33.03;18.73;;;8.50;99.90;;;;;;5012567;28;20129;-80
2022/12/26 06:06:15;;;;;;;38.08;20.02;;;8.50;99.90;;;;;;5016163;28;20707;-81
2022/12/26 06:08:41;;;;;;;32.05;18.90;;;8.50;99.90;;;;;;5019342;28;20056;-80
2022/12/26 06:11:10;;;;;;;35.63;19.35;;;8.50;99.90;;;;;;5015152;28;20057;-81
2022/12/26 06:13:37;;;;;;;31.73;18.17;;;8.50;99.90;;;;;;5014608;28;20485;-81
2022/12/26 06:16:08;;;;;;;31.02;17.48;;;8.50;99.90;;;;;;5025039;28;20041;-80
2022/12/26 06:18:34;;;;;;;30.10;16.85;;;8.50;99.90;;;;;;5022695;28;20048;-83
2022/12/26 06:21:06;;;;;;;35.40;18.25;;;8.50;99.90;;;;;;5015976;28;20791;-80
2022/12/26 06:23:33;;;;;;;35.53;17.95;;;8.40;99.90;;;;;;5023869;28;20037;-80
2022/12/26 06:25:59;;;;;;;30.35;18.05;;;8.50;99.90;;;;;;5020213;28;20042;-80
2022/12/26 06:28:25;;;;;;;34.88;19.25;;;8.50;99.90;;;;;;5017954;28;20089;-80
2022/12/26 06:31:00;;;;;;;31.42;18.70;;;8.50;99.90;;;;;;5016626;28;20065;-80
2022/12/26 06:33:25;;;;;;;30.85;18.15;;;8.60;99.90;;;;;;5026564;28;20060;-80
2022/12/26 06:35:51;;;;;;;32.00;17.40;;;8.60;99.90;;;;;;5015468;28;20038;-80
2022/12/26 06:38:16;;;;;;;30.45;17.08;;;8.60;99.90;;;;;;5021221;28;20120;-81
2022/12/26 06:40:42;;;;;;;28.95;16.65;;;8.60;99.90;;;;;;5011944;28;20058;-81
2022/12/26 06:43:08;;;;;;;29.60;16.90;;;8.60;99.90;;;;;;5014814;28;20042;-81
2022/12/26 06:45:34;;;;;;;30.23;17.27;;;8.60;99.90;;;;;;5024680;28;20129;-80
2022/12/26 06:48:00;;;;;;;26.15;16.10;;;8.60;99.90;;;;;;5020829;28;20147;-79
2022/12/26 06:50:26;;;;;;;26.10;16.23;;;8.60;99.90;;;;;;5027174;28;20407;-80
2022/12/26 06:52:52;;;;;;;27.08;15.90;;;8.60;99.90;;;;;;5018145;28;20476;-80
2022/12/26 06:55:17;;;;;;;24.48;14.90;;;8.60;99.90;;;;;;5016081;28;20415;-81
2022/12/26 06:57:43;;;;;;;28.92;15.90;;;8.70;99.90;;;;;;5019083;28;20159;-81
2022/12/26 07:00:10;;;;;;;23.63;15.27;;;8.60;99.90;;;;;;5009387;28;20455;-80
2022/12/26 07:02:36;;;;;;;25.70;16.42;;;8.60;99.90;;;;;;5022355;28;20042;-80
2022/12/26 07:05:01;;;;;;;26.00;15.95;;;8.70;99.90;;;;;;5010123;28;20042;-80
2022/12/26 07:07:27;;;;;;;26.73;14.70;;;8.70;99.90;;;;;;5011028;28;20113;-80
2022/12/26 07:09:53;;;;;;;26.25;14.75;;;8.70;99.90;;;;;;5012254;28;20472;-80
2022/12/26 07:12:20;;;;;;;27.65;15.38;;;8.70;99.90;;;;;;5018929;28;20063;-80
2022/12/26 07:14:46;;;;;;;25.58;15.05;;;8.70;99.90;;;;;;5012489;28;20054;-80
2022/12/26 07:17:12;;;;;;;24.70;14.90;;;8.70;99.90;;;;;;5016068;28;20033;-80
2022/12/26 07:19:38;;;;;;;24.88;14.82;;;8.70;99.90;;;;;;5023960;28;20840;-80
2022/12/26 07:22:03;;;;;;;26.98;14.35;;;9.00;99.90;;;;;;5013058;28;20488;-80
2022/12/26 07:24:29;;;;;;;24.90;15.25;;;8.80;99.90;;;;;;5017161;28;20092;-80
2022/12/26 07:26:55;;;;;;;25.15;14.55;;;8.80;99.90;;;;;;5013729;28;20046;-79
2022/12/26 07:29:21;;;;;;;25.40;14.80;;;8.80;99.90;;;;;;5012627;28;20076;-80
2022/12/26 07:31:47;;;;;;;23.75;13.57;;;8.80;99.90;;;;;;5016192;28;20042;-80
2022/12/26 07:34:13;;;;;;;22.55;13.48;;;8.80;99.90;;;;;;4995418;28;20036;-79
2022/12/26 07:36:40;;;;;;;21.67;13.98;;;8.80;99.90;;;;;;5013916;28;20103;-80
2022/12/26 07:39:05;;;;;;;24.50;13.93;;;8.80;99.90;;;;;;5012285;28;20133;-80
2022/12/26 07:44:16;;;;;;;25.67;12.80;;;8.90;99.90;;;;;;5023860;28;20569;-80
2022/12/26 07:46:42;;;;;;;20.95;12.02;;;8.70;99.90;;;;;;5022159;28;20378;-81
2022/12/26 07:49:11;;;;;;;17.50;10.88;;;8.70;99.90;;;;;;5014714;28;20073;-79
2022/12/26 07:51:37;;;;;;;27.38;13.55;;;8.70;99.90;;;;;;5017872;28;20046;-80
2022/12/26 07:54:02;;;;;;;24.63;13.93;;;8.70;99.90;;;;;;5019637;28;20440;-80
2022/12/26 07:56:29;;;;;;;20.00;12.93;;;8.70;99.90;;;;;;5009257;28;20084;-80
2022/12/26 07:58:55;;;;;;;28.52;12.25;;;8.80;99.90;;;;;;5013844;28;20273;-80
2022/12/26 08:01:21;;;;;;;20.08;11.32;;;8.70;99.90;;;;;;5014052;28;20044;-79
2022/12/26 08:03:48;;;;;;;19.13;10.70;;;8.70;99.90;;;;;;5022173;28;20119;-79
2022/12/26 08:06:14;;;;;;;17.60;10.63;;;8.80;99.90;;;;;;5013314;28;20496;-79
2022/12/26 08:08:40;;;;;;;15.60;10.07;;;8.80;99.90;;;;;;5013714;28;20041;-80
2022/12/26 08:11:07;;;;;;;18.33;11.13;;;8.80;99.90;;;;;;5011786;28;20393;-79
2022/12/26 08:13:34;;;;;;;19.70;10.55;;;8.80;99.90;;;;;;5008525;28;20049;-79
2022/12/26 08:16:04;;;;;;;15.50;10.55;;;8.80;99.90;;;;;;5009814;28;20076;-79
2022/12/26 08:18:30;;;;;;;21.08;10.82;;;8.80;99.90;;;;;;5019436;28;20046;-79
2022/12/26 08:20:57;;;;;;;20.52;11.27;;;8.80;99.90;;;;;;5015603;28;20042;-80
2022/12/26 08:23:22;;;;;;;20.63;11.57;;;8.80;99.90;;;;;;5012974;28;20076;-79
2022/12/26 08:25:48;;;;;;;14.80;9.85;;;8.80;99.90;;;;;;5011404;28;20094;-80
2022/12/26 08:28:14;;;;;;;17.45;10.75;;;8.90;99.90;;;;;;5017549;28;20072;-80
2022/12/26 08:30:40;;;;;;;16.83;10.60;;;9.20;99.90;;;;;;5016976;28;20048;-80
2022/12/26 08:33:06;;;;;;;21.13;12.00;;;8.90;99.90;;;;;;5017114;28;20557;-83
2022/12/26 08:35:37;;;;;;;18.83;10.68;;;8.90;99.90;;;;;;5011812;28;20113;-85
2022/12/26 08:38:03;;;;;;;17.73;10.30;;;9.10;99.90;;;;;;5016865;28;20037;-83
2022/12/26 08:40:29;;;;;;;17.23;9.90;;;9.20;99.90;;;;;;5011887;28;20068;-81
2022/12/26 08:42:55;;;;;;;16.05;10.50;;;8.90;99.90;;;;;;5011565;28;20084;-81
2022/12/26 08:45:20;;;;;;;20.08;10.73;;;8.90;99.90;;;;;;5029387;28;20091;-82
2022/12/26 08:47:46;;;;;;;20.70;11.05;;;8.90;99.90;;;;;;5015575;28;20091;-82
2022/12/26 08:50:12;;;;;;;18.35;9.60;;;8.90;99.90;;;;;;5011782;28;20068;-81
2022/12/26 08:52:37;;;;;;;20.88;9.90;;;8.90;99.90;;;;;;5012666;28;20092;-80
2022/12/26 08:55:03;;;;;;;14.80;9.38;;;8.90;99.90;;;;;;5015745;28;20077;-82
2022/12/26 08:57:30;;;;;;;18.35;9.25;;;8.90;99.90;;;;;;5021127;28;20037;-82
2022/12/26 08:59:55;;;;;;;16.38;9.55;;;8.90;99.90;;;;;;5016566;28;20036;-83
2022/12/26 09:02:21;;;;;;;15.30;8.70;;;9.00;99.90;;;;;;5019398;28;20529;-81
2022/12/26 09:04:46;;;;;;;17.20;8.60;;;9.20;99.90;;;;;;5012746;28;20042;-80
2022/12/26 09:07:12;;;;;;;14.05;7.75;;;9.00;99.90;;;;;;5006585;28;20037;-79
2022/12/26 09:09:38;;;;;;;18.70;8.57;;;9.10;99.90;;;;;;5012548;28;20061;-80
2022/12/26 09:12:04;;;;;;;15.05;9.05;;;9.10;99.90;;;;;;5008702;28;20123;-80
2022/12/26 09:14:29;;;;;;;15.95;8.80;;;9.10;99.90;;;;;;5018754;28;20108;-80
2022/12/26 09:16:55;;;;;;;15.82;8.38;;;9.10;99.90;;;;;;5009137;28;20124;-80
2022/12/26 09:19:21;;;;;;;15.10;8.63;;;9.00;99.90;;;;;;5011554;28;20030;-80
2022/12/26 09:22:49;;;;;;;12.85;8.02;;;9.10;99.90;;;;;;5014082;28;20137;-81
2022/12/26 09:24:34;;;;;;;15.32;8.07;;;9.10;99.90;;;;;;5009688;28;20045;-84
2022/12/26 09:27:00;;;;;;;13.07;7.20;;;9.10;99.90;;;;;;5012353;28;20042;-81
2022/12/26 09:29:25;;;;;;;12.77;7.22;;;9.00;99.90;;;;;;5011314;28;20038;-82
2022/12/26 09:31:54;;;;;;;11.98;7.88;;;9.30;99.90;;;;;;5014792;28;20033;-83
2022/12/26 09:34:19;;;;;;;12.05;6.97;;;9.10;99.90;;;;;;5000562;28;20081;-84
2022/12/26 09:36:45;;;;;;;15.88;6.28;;;9.40;99.90;;;;;;5013249;28;20480;-81
2022/12/26 09:39:11;;;;;;;11.15;6.07;;;9.10;99.90;;;;;;5010519;28;20038;-82
2022/12/26 09:42:09;;;;;;;13.02;6.03;;;9.10;99.90;;;;;;5009180;28;20049;-83
2022/12/26 09:45:19;;;;;;;15.05;5.53;;;9.20;99.90;;;;;;4982805;28;20054;-83
2022/12/26 09:48:18;;;;;;;15.30;5.43;;;9.20;99.90;;;;;;5014392;28;20065;-86
2022/12/26 09:50:47;;;;;;;12.43;4.97;;;9.30;99.90;;;;;;5008580;28;20072;-83
2022/12/26 09:53:24;;;;;;;13.90;5.60;;;9.30;99.90;;;;;;5020706;28;20145;-83
2022/12/26 09:55:59;;;;;;;10.63;4.50;;;9.30;99.90;;;;;;5012252;28;20121;-83
2022/12/26 09:58:32;;;;;;;8.98;4.00;;;9.30;99.90;;;;;;5025872;28;20052;-84
2022/12/26 10:01:19;;;;;;;13.45;4.05;;;9.30;99.90;;;;;;5016825;28;20045;-83
2022/12/26 10:03:52;;;;;;;11.80;3.90;;;9.30;99.90;;;;;;5016370;28;20072;-84
2022/12/26 10:06:25;;;;;;;12.50;3.17;;;9.20;99.90;;;;;;5012573;28;20073;-84
2022/12/26 10:08:55;;;;;;;8.65;2.35;;;9.20;99.90;;;;;;5012278;28;20046;-82
2022/12/26 10:11:33;;;;;;;12.82;2.45;;;9.10;99.90;;;;;;5011944;28;20507;-84
2022/12/26 10:14:10;;;;;;;9.98;1.55;;;8.90;99.90;;;;;;5013741;28;20059;-84
2022/12/26 10:16:57;;;;;;;7.65;1.40;;;8.70;99.90;;;;;;5013683;28;20121;-84
2022/12/26 10:19:41;;;;;;;15.57;1.98;;;8.60;99.90;;;;;;5013032;28;20038;-83
2022/12/26 10:22:27;;;;;;;10.75;1.73;;;8.30;99.90;;;;;;5023289;28;20056;-83
2022/12/26 10:24:56;;;;;;;12.85;2.13;;;8.20;99.90;;;;;;5007293;28;20129;-84
2022/12/26 10:27:24;;;;;;;9.55;2.00;;;8.30;99.90;;;;;;5021178;28;20071;-83
2022/12/26 10:30:14;;;;;;;11.98;1.75;;;8.00;99.90;;;;;;5030529;28;20351;-84
2022/12/26 10:32:49;;;;;;;13.60;1.73;;;8.00;99.90;;;;;;5017180;28;20056;-83
2022/12/26 10:35:34;;;;;;;12.48;2.47;;;8.10;99.90;;;;;;5012718;28;20127;-83
2022/12/26 10:38:27;;;;;;;12.15;1.70;;;8.10;99.90;;;;;;5019182;28;20049;-83
2022/12/26 10:40:57;;;;;;;8.32;2.58;;;8.10;99.90;;;;;;5012569;28;20057;-84
2022/12/26 10:43:29;;;;;;;7.50;1.75;;;8.10;99.90;;;;;;5012441;28;20038;-84
2022/12/26 10:46:10;;;;;;;10.40;1.08;;;8.10;99.90;;;;;;5018841;28;20038;-84
2022/12/26 10:48:36;;;;;;;10.05;1.40;;;8.10;99.90;;;;;;5011751;28;20044;-84
2022/12/26 10:51:02;;;;;;;15.68;1.42;;;8.10;99.90;;;;;;5032079;28;20029;-84
2022/12/26 10:53:27;;;;;;;13.45;1.75;;;8.10;99.90;;;;;;5011541;28;20069;-84
2022/12/26 10:55:53;;;;;;;7.78;1.10;;;8.10;99.90;;;;;;5017229;28;20527;-84
2022/12/26 10:58:28;;;;;;;11.65;1.55;;;8.00;99.90;;;;;;5019547;28;20042;-84
2022/12/26 11:00:54;;;;;;;11.93;1.20;;;8.00;99.90;;;;;;5016240;28;20050;-84
2022/12/26 11:03:20;;;;;;;3.95;0.95;;;8.00;99.90;;;;;;5010937;28;20068;-84
2022/12/26 11:05:52;;;;;;;10.10;0.80;;;8.00;99.90;;;;;;5012760;28;20045;-84
2022/12/26 11:08:29;;;;;;;6.90;1.17;;;8.40;99.90;;;;;;5019339;28;20080;-84
2022/12/26 11:11:08;;;;;;;7.85;0.85;;;7.80;99.90;;;;;;5017629;28;20046;-84
2022/12/26 11:13:55;;;;;;;6.57;1.15;;;8.20;99.90;;;;;;5027027;28;20045;-84
2022/12/26 11:16:34;;;;;;;6.22;0.90;;;7.70;99.90;;;;;;5012460;28;20089;-83
2022/12/26 11:18:59;;;;;;;8.10;1.08;;;8.00;99.90;;;;;;5010906;28;20046;-83
2022/12/26 11:21:28;;;;;;;10.10;0.95;;;7.60;99.90;;;;;;5013871;28;20046;-84
2022/12/26 11:24:05;;;;;;;13.90;1.67;;;7.60;99.90;;;;;;5015403;28;20037;-83
2022/12/26 11:26:31;;;;;;;8.70;1.05;;;7.60;99.90;;;;;;5011855;28;20099;-84
2022/12/26 11:29:19;;;;;;;7.38;1.08;;;7.60;99.90;;;;;;5020915;28;20120;-84
2022/12/26 11:32:03;;;;;;;8.23;0.98;;;7.60;99.90;;;;;;5018072;28;20496;-84
2022/12/26 11:34:31;;;;;;;8.88;1.30;;;7.60;99.90;;;;;;5010801;28;20033;-83
2022/12/26 11:36:56;;;;;;;8.38;1.33;;;7.60;99.90;;;;;;5015482;28;20037;-84
2022/12/26 11:39:27;;;;;;;13.15;1.58;;;7.60;99.90;;;;;;5015662;28;20484;-84
2022/12/26 11:41:54;;;;;;;6.50;1.35;;;7.60;99.90;;;;;;4995350;28;20096;-83
2022/12/26 11:44:22;;;;;;;10.65;1.45;;;7.50;99.90;;;;;;5014247;28;20121;-84
2022/12/26 11:46:59;;;;;;;11.20;1.10;;;7.60;99.90;;;;;;4997727;28;20448;-84
2022/12/26 11:49:25;;;;;;;7.45;1.17;;;7.60;99.90;;;;;;5027082;28;20038;-83
2022/12/26 11:51:52;;;;;;;11.52;1.30;;;7.60;99.90;;;;;;5010254;28;20495;-84
2022/12/26 11:54:22;;;;;;;11.43;1.30;;;7.60;99.90;;;;;;5026870;28;20397;-84
2022/12/26 11:56:58;;;;;;;10.13;1.10;;;7.60;99.90;;;;;;5011950;28;20044;-84
2022/12/26 11:59:23;;;;;;;10.63;1.52;;;7.60;99.90;;;;;;5010414;28;20041;-83
2022/12/26 12:02:16;;;;;;;6.32;1.10;;;7.60;99.90;;;;;;5009639;28;20045;-83
2022/12/26 12:04:43;;;;;;;7.18;1.02;;;7.60;99.90;;;;;;5011266;28;20509;-84
2022/12/26 12:07:29;;;;;;;6.05;0.70;;;7.50;99.90;;;;;;5010520;28;20833;-84
2022/12/26 12:10:28;;;;;;;7.10;1.90;;;7.50;99.90;;;;;;5021703;28;20057;-84
2022/12/26 12:13:13;;;;;;;8.95;1.35;;;7.60;99.90;;;;;;5027150;28;20404;-83
2022/12/26 12:15:44;;;;;;;;;;;7.60;99.90;;;;;;5012395;28;20298;-84
2022/12/26 12:18:10;;;;;;;12.13;1.50;;;7.50;99.90;;;;;;5009583;28;19925;-84
2022/12/26 12:21:00;;;;;;;7.22;0.85;;;7.80;99.90;;;;;;5019946;28;20419;-83
2022/12/26 12:23:34;;;;;;;8.73;0.90;;;7.60;99.90;;;;;;5017145;28;20060;-83
2022/12/26 12:26:28;;;;;;;6.65;0.77;;;7.50;99.90;;;;;;5010985;28;20038;-84
2022/12/26 12:29:26;;;;;;;10.23;1.23;;;7.50;99.90;;;;;;4997458;28;20108;-84
2022/12/26 12:32:27;;;;;;;12.43;1.50;;;7.50;99.90;;;;;;5011893;28;20055;-84
2022/12/26 12:34:53;;;;;;;10.85;1.00;;;7.50;99.90;;;;;;5025425;28;20529;-83
2022/12/26 12:37:31;;;;;;;10.65;1.13;;;7.50;99.90;;;;;;5020263;28;20037;-83
2022/12/26 12:40:06;;;;;;;8.68;1.42;;;7.50;99.90;;;;;;5016826;28;20084;-83
2022/12/26 12:42:41;;;;;;;9.43;1.73;;;7.50;99.90;;;;;;5013233;28;20069;-83
2022/12/26 12:45:27;;;;;;;;;;;7.50;99.90;;;;;;5009741;28;20038;-83
2022/12/26 12:48:10;;;;;;;7.15;1.20;;;7.50;99.90;;;;;;5010311;28;19917;-83
2022/12/26 12:51:10;;;;;;;6.70;1.40;;;7.50;99.90;;;;;;5010003;28;20180;-84
2022/12/26 12:54:04;;;;;;;10.38;1.30;;;7.50;99.90;;;;;;5009790;28;20054;-84
2022/12/26 12:56:35;;;;;;;15.03;2.87;;;7.40;99.90;;;;;;5014759;28;20038;-84
2022/12/26 12:59:12;;;;;;;10.77;2.10;;;7.40;99.90;;;;;;5013944;28;20045;-84
2022/12/26 13:01:48;;;;;;;12.77;1.88;;;7.30;99.90;;;;;;5010942;28;20030;-84
2022/12/26 13:04:28;;;;;;;10.73;1.90;;;7.20;99.90;;;;;;5021555;28;20169;-84
2022/12/26 13:07:05;;;;;;;9.98;1.40;;;7.20;99.90;;;;;;5013686;28;20037;-83
2022/12/26 13:09:59;;;;;;;10.52;1.73;;;7.10;99.90;;;;;;5010412;28;20046;-84
2022/12/26 13:12:29;;;;;;;11.40;1.42;;;7.10;99.90;;;;;;5006978;28;20050;-84
2022/12/26 13:15:04;;;;;;;14.07;1.98;;;7.00;99.90;;;;;;5009319;28;20468;-83
2022/12/26 13:17:42;;;;;;;16.80;1.63;;;7.00;99.90;;;;;;5010365;28;20038;-83
2022/12/26 13:20:20;;;;;;;9.00;1.73;;;7.00;99.90;;;;;;5013530;28;20030;-83
2022/12/26 13:25:42;;;;;;;12.38;2.53;;;6.90;99.90;;;;;;5010140;28;20046;-83
2022/12/26 13:28:14;;;;;;;12.70;1.38;;;6.90;99.90;;;;;;5010472;28;20037;-83
2022/12/26 13:30:40;;;;;;;17.23;2.20;;;6.90;99.90;;;;;;5014962;28;20042;-83
2022/12/26 13:33:13;;;;;;;8.95;1.70;;;6.90;99.90;;;;;;5008760;28;20045;-83
2022/12/26 13:36:01;;;;;;;10.50;1.67;;;6.90;99.90;;;;;;5012383;28;20042;-83
2022/12/26 13:38:57;;;;;;;13.20;2.10;;;6.90;99.90;;;;;;5014407;28;20037;-83
2022/12/26 13:44:18;;;;;;;10.18;1.75;;;6.90;99.90;;;;;;5013526;28;20041;-83
2022/12/26 13:46:44;;;;;;;;;;;6.90;99.90;;;;;;5023121;28;20057;-83
2022/12/26 13:49:26;;;;;;;12.63;2.20;;;6.80;99.90;;;;;;5020419;28;19933;-83
2022/12/26 13:51:54;;;;;;;14.48;2.53;;;6.80;99.90;;;;;;5018745;28;20099;-83
2022/12/26 13:54:22;;;;;;;14.73;3.05;;;6.80;99.90;;;;;;5013704;28;20153;-83
2022/12/26 13:57:31;;;;;;;31.67;14.63;;;6.80;99.90;;;;;;5012992;28;20033;-83
2022/12/26 14:00:06;;;;;;;14.25;2.28;;;6.80;99.90;;;;;;5005694;28;20492;-83
2022/12/26 14:02:48;;;;;;;11.20;2.25;;;6.80;99.90;;;;;;5021621;28;20121;-83
2022/12/26 14:05:46;;;;;;;13.15;2.40;;;6.80;99.90;;;;;;5021459;28;20056;-83
2022/12/26 14:08:32;;;;;;;8.70;1.70;;;6.90;99.90;;;;;;5017127;28;20505;-84
2022/12/26 14:11:20;;;;;;;17.30;2.00;;;6.90;99.90;;;;;;5013259;28;20042;-83
2022/12/26 14:14:30;;;;;;;10.63;2.83;;;6.90;99.90;;;;;;5013109;28;20111;-83
2022/12/26 14:17:15;;;;;;;9.25;1.90;;;6.90;99.90;;;;;;5013748;28;20068;-83
2022/12/26 14:19:55;;;;;;;16.27;3.40;;;6.80;99.90;;;;;;5011985;28;20455;-83
2022/12/26 14:22:29;;;;;;;11.35;1.58;;;6.70;99.90;;;;;;5013387;28;20049;-83
2022/12/26 14:25:01;;;;;;;9.38;1.30;;;6.60;99.90;;;;;;5013171;28;20539;-83
2022/12/26 14:27:52;;;;;;;17.70;2.15;;;6.50;99.90;;;;;;5011110;28;20080;-83
2022/12/26 14:30:49;;;;;;;12.55;1.92;;;6.50;99.90;;;;;;5012957;28;20072;-83
2022/12/26 14:33:47;;;;;;;9.93;1.70;;;6.40;99.90;;;;;;5012947;28;20058;-83
2022/12/26 14:36:57;;;;;;;12.23;1.77;;;6.30;99.90;;;;;;4934187;29;20109;-83
2022/12/26 14:39:35;;;;;;;9.50;1.67;;;6.30;99.90;;;;;;4919100;29;20461;-83
2022/12/26 14:44:53;;;;;;;17.33;5.32;;;6.10;99.90;;;;;;4931499;29;20145;-83
2022/12/26 14:47:40;;;;;;;12.23;2.03;;;6.10;99.90;;;;;;4948939;28;20055;-83
2022/12/26 14:50:39;;;;;;;9.13;1.50;;;6.10;99.90;;;;;;4946951;29;20062;-83
2022/12/26 14:53:23;;;;;;;8.75;2.33;;;6.10;99.90;;;;;;4949837;29;20129;-83
2022/12/26 14:55:55;;;;;;;12.82;1.63;;;6.20;99.90;;;;;;4950014;29;20035;-83
2022/12/26 14:58:30;;;;;;;10.73;1.63;;;6.00;99.90;;;;;;4951212;29;20180;-83
2022/12/26 15:01:19;;;;;;;15.07;1.65;;;5.90;99.90;;;;;;4950437;29;20079;-83
2022/12/26 15:04:15;;;;;;;14.02;2.03;;;5.90;99.90;;;;;;4933980;29;20047;-83
2022/12/26 15:07:02;;;;;;;12.88;2.08;;;5.80;99.90;;;;;;4949581;29;20059;-83
2022/12/26 15:09:42;;;;;;;12.10;1.40;;;5.80;99.90;;;;;;4949254;29;20414;-83
2022/12/26 15:12:38;;;;;;;15.73;2.30;;;5.90;99.90;;;;;;4965460;28;20134;-83
2022/12/26 15:15:29;;;;;;;12.90;1.70;;;5.90;99.90;;;;;;5012407;28;20539;-83
2022/12/26 15:18:25;;;;;;;18.10;2.40;;;5.80;99.90;;;;;;5006904;28;20049;-83
2022/12/26 15:21:02;;;;;;;12.60;4.10;;;5.80;99.90;;;;;;5015542;28;20180;-82
2022/12/26 15:23:31;;;;;;;14.27;3.55;;;5.80;99.90;;;;;;5011579;28;20520;-83
2022/12/26 15:26:27;;;;;;;13.45;1.65;;;5.80;99.90;;;;;;5020091;28;20052;-83
2022/12/26 15:29:19;;;;;;;12.18;2.97;;;5.70;99.90;;;;;;5011577;28;20037;-83